Time;durP1;ratioP1;P1;durP2;ratioP2;P2;SDS_P1;SDS_P2;PMS_P1;PMS_P2;Temp;Humidity;BMP_temperature;BMP_pressure;BME280_temperature;BME280_humidity;BME280_pressure;Samples;Min_cycle;Max_cycle;Signal;HPM_P1;HPM_P2
2022/04/05 00:00:05;;;;;;;8.73;5.70;;;;;;;3.17;95.86;95291.72;4992915;28;24448;-76
2022/04/05 00:02:31;;;;;;;6.60;5.93;;;;;;;3.13;96.01;95299.50;4993118;28;24965;-76
2022/04/05 00:04:58;;;;;;;7.32;6.35;;;;;;;3.10;95.86;95291.13;4992882;28;24954;-76
2022/04/05 00:07:24;;;;;;;6.20;5.60;;;;;;;3.13;96.07;95291.84;4993310;28;24432;-76
2022/04/05 00:09:51;;;;;;;6.40;5.80;;;;;;;3.17;95.88;95277.19;4993087;28;24539;-76
2022/04/05 00:12:20;;;;;;;6.90;5.78;;;;;;;3.20;95.25;95261.72;4992960;28;24428;-76
2022/04/05 00:14:46;;;;;;;6.97;6.28;;;;;;;3.22;94.42;95259.06;4992706;28;24962;-75
2022/04/05 00:17:13;;;;;;;7.35;6.18;;;;;;;3.23;93.53;95219.81;4992142;28;24425;-76
2022/04/05 00:19:39;;;;;;;7.15;5.90;;;;;;;3.20;94.08;95218.22;4992645;28;25149;-76
2022/04/05 00:22:06;;;;;;;6.97;6.25;;;;;;;3.14;94.62;95221.03;4992679;28;24475;-75
2022/04/05 00:24:32;;;;;;;8.87;6.50;;;;;;;3.24;93.19;95213.78;4992653;28;24989;-76
2022/04/05 00:26:59;;;;;;;8.20;6.40;;;;;;;3.19;93.16;95215.69;4992950;28;24425;-75
2022/04/05 00:29:27;;;;;;;6.55;5.88;;;;;;;3.27;92.23;95211.94;4992884;28;24496;-76
2022/04/05 00:31:53;;;;;;;7.77;6.00;;;;;;;3.31;91.71;95215.19;4992376;28;24815;-76
2022/04/05 00:34:24;;;;;;;8.27;6.05;;;;;;;3.23;92.05;95212.97;4992364;28;24457;-76
2022/04/05 00:36:51;;;;;;;6.78;6.07;;;;;;;3.29;91.68;95224.66;4992492;28;24531;-75
2022/04/05 00:39:17;;;;;;;8.02;6.10;;;;;;;3.23;92.38;95217.25;4992613;28;24428;-76
2022/04/05 00:41:44;;;;;;;9.50;6.63;;;;;;;3.32;91.73;95217.69;4992395;28;24440;-76
2022/04/05 00:44:10;;;;;;;6.60;5.88;;;;;;;3.35;91.39;95214.16;4992783;28;24429;-76
2022/04/05 00:46:38;;;;;;;8.52;6.40;;;;;;;3.53;89.88;95222.78;4992376;28;24795;-76
2022/04/05 00:49:05;;;;;;;10.45;7.05;;;;;;;3.41;91.03;95226.66;4992212;28;24425;-77
2022/04/05 00:51:32;;;;;;;8.30;6.43;;;;;;;3.43;91.18;95231.75;4992311;28;24429;-76
2022/04/05 00:54:05;;;;;;;7.25;6.03;;;;;;;3.44;90.65;95229.09;4992521;28;24491;-76
2022/04/05 00:56:35;;;;;;;7.63;6.20;;;;;;;3.45;90.71;95229.94;4992006;28;24432;-76
2022/04/05 00:59:03;;;;;;;8.52;5.97;;;;;;;3.48;89.46;95219.56;4992023;28;24475;-76
2022/04/05 01:01:31;;;;;;;8.13;6.30;;;;;;;3.48;90.42;95234.94;4991985;28;24437;-76
2022/04/05 01:03:59;;;;;;;6.88;5.93;;;;;;;3.41;90.86;95216.44;4991919;28;24951;-77
2022/04/05 01:06:28;;;;;;;7.57;5.95;;;;;;;3.42;90.70;95220.69;4992136;28;24433;-76
2022/04/05 01:08:57;;;;;;;6.38;5.35;;;;;;;3.49;90.35;95213.56;4991967;28;24503;-76
2022/04/05 01:11:23;;;;;;;9.55;6.10;;;;;;;3.55;89.47;95193.63;4991707;28;24525;-76
2022/04/05 01:13:50;;;;;;;7.77;5.93;;;;;;;3.49;90.14;95205.88;4991757;28;24424;-76
2022/04/05 01:16:18;;;;;;;8.15;5.90;;;;;;;3.50;90.19;95200.69;4991921;28;24523;-76
2022/04/05 01:18:45;;;;;;;7.03;5.90;;;;;;;3.47;90.06;95211.06;4991941;28;24431;-76
2022/04/05 01:21:14;;;;;;;8.93;5.75;;;;;;;3.61;89.08;95201.03;4991887;28;24793;-75
2022/04/05 01:24:03;;;;;;;7.20;5.72;;;;;;;3.60;89.15;95199.38;4991546;28;24440;-74
2022/04/05 01:26:29;;;;;;;11.27;5.68;;;;;;;3.51;90.62;95217.69;4991460;28;25156;-75
2022/04/05 01:28:56;;;;;;;8.33;5.83;;;;;;;3.52;90.38;95216.81;4991867;28;24433;-74
2022/04/05 01:31:24;;;;;;;6.65;5.57;;;;;;;3.62;90.64;95223.19;4990912;28;21304;-76
2022/04/05 01:33:50;;;;;;;7.43;5.82;;;;;;;3.73;89.82;95204.78;4991794;28;24827;-76
2022/04/05 01:36:21;;;;;;;8.18;5.45;;;;;;;3.59;91.09;95212.25;4991362;28;24436;-75
2022/04/05 01:38:49;;;;;;;6.57;5.47;;;;;;;3.51;92.07;95211.75;4991764;28;24471;-76
2022/04/05 01:41:16;;;;;;;9.00;6.22;;;;;;;3.53;92.39;95207.41;4991505;28;24428;-76
2022/04/05 01:43:42;;;;;;;7.35;5.30;;;;;;;3.60;92.56;95207.06;4991612;28;24425;-76
2022/04/05 01:46:08;;;;;;;8.45;5.68;;;;;;;3.55;93.32;95208.16;4991300;28;24428;-76
2022/04/05 01:48:35;;;;;;;7.80;5.38;;;;;;;3.56;93.39;95195.31;4991290;28;25006;-76
2022/04/05 01:51:01;;;;;;;6.25;5.38;;;;;;;3.57;93.80;95189.28;4991019;28;24445;-75
2022/04/05 01:53:28;;;;;;;6.68;5.18;;;;;;;3.55;94.47;95183.38;4991140;28;24985;-76
2022/04/05 01:55:55;;;;;;;6.82;5.00;;;;;;;3.51;95.04;95188.72;4991193;28;24437;-76
2022/04/05 01:58:22;;;;;;;7.50;6.07;;;;;;;3.50;95.23;95184.50;4991529;28;24480;-76
2022/04/05 02:00:50;;;;;;;6.85;5.43;;;;;;;3.56;94.98;95171.41;4990939;28;24819;-76
2022/04/05 02:03:17;;;;;;;7.00;5.50;;;;;;;3.54;95.08;95166.38;4991244;28;24532;-76
2022/04/05 02:05:46;;;;;;;7.78;5.43;;;;;;;3.55;94.81;95152.66;4991085;28;24480;-76
2022/04/05 02:08:13;;;;;;;6.85;5.18;;;;;;;3.53;95.21;95163.88;4991135;28;24528;-76
2022/04/05 02:10:40;;;;;;;6.18;5.45;;;;;;;3.61;95.01;95162.63;4991164;28;24862;-76
2022/04/05 02:13:08;;;;;;;7.97;5.35;;;;;;;3.66;94.23;95164.97;4991136;28;24950;-76
2022/04/05 02:15:35;;;;;;;5.68;5.07;;;;;;;3.60;94.96;95171.22;4990948;28;25049;-76
2022/04/05 02:18:01;;;;;;;7.55;5.53;;;;;;;3.59;94.73;95181.50;4991042;28;24428;-76
2022/04/05 02:20:27;;;;;;;7.80;5.47;;;;;;;3.55;95.61;95174.88;4991142;28;24480;-76
2022/04/05 02:22:54;;;;;;;7.43;5.40;;;;;;;3.69;94.31;95180.22;4990854;28;24417;-76
2022/04/05 02:25:20;;;;;;;7.43;5.00;;;;;;;3.69;94.41;95180.22;5031954;23;24414;-72
2022/04/05 02:27:48;;;;;;;7.07;5.40;;;;;;;3.64;94.79;95182.97;5030352;28;24415;-72
2022/04/05 02:30:15;;;;;;;6.27;5.40;;;;;;;3.66;94.19;95179.50;5030131;28;24612;-72
2022/04/05 02:32:42;;;;;;;8.15;5.30;;;;;;;3.62;94.87;95176.25;5030151;28;24431;-72
2022/04/05 02:35:10;;;;;;;6.93;5.28;;;;;;;3.62;94.70;95182.22;5029277;28;24510;-72
2022/04/05 02:37:37;;;;;;;7.35;5.40;;;;;;;3.59;94.99;95182.34;5010676;28;24475;-72
2022/04/05 02:40:04;;;;;;;9.63;5.47;;;;;;;3.61;94.94;95178.00;5011043;28;24420;-72
2022/04/05 02:42:31;;;;;;;5.73;5.03;;;;;;;3.52;95.99;95180.13;5014165;28;24539;-72
2022/04/05 02:44:57;;;;;;;5.28;4.75;;;;;;;3.65;94.87;95183.81;5014443;28;24507;-72
2022/04/05 02:47:25;;;;;;;7.07;5.15;;;;;;;3.72;94.20;95177.50;5014312;28;24432;-72
2022/04/05 02:49:52;;;;;;;7.72;5.28;;;;;;;3.67;94.56;95179.47;5013704;28;24510;-72
2022/04/05 02:52:18;;;;;;;7.03;5.38;;;;;;;3.63;95.14;95167.66;5014204;28;24431;-72
2022/04/05 02:54:44;;;;;;;7.07;4.70;;;;;;;3.70;94.76;95174.19;5014070;28;24833;-72
2022/04/05 02:57:12;;;;;;;8.82;5.72;;;;;;;3.60;94.70;95163.53;5014149;28;24793;-72
2022/04/05 02:59:39;;;;;;;7.03;5.65;;;;;;;3.67;94.35;95176.91;5013563;28;24797;-72
2022/04/05 03:02:05;;;;;;;7.15;5.50;;;;;;;3.62;94.57;95166.84;5013521;28;25035;-72
2022/04/05 03:04:36;;;;;;;6.75;5.47;;;;;;;3.61;95.14;95170.31;5013961;28;24431;-73
2022/04/05 03:07:03;;;;;;;5.25;4.75;;;;;;;3.63;94.55;95167.66;5013584;28;25005;-72
2022/04/05 03:09:29;;;;;;;7.07;4.70;;;;;;;3.71;93.80;95168.19;5013777;28;24988;-72
2022/04/05 03:11:56;;;;;;;7.57;5.38;;;;;;;3.63;94.56;95168.53;5013532;28;24455;-72
2022/04/05 03:14:22;;;;;;;7.13;5.38;;;;;;;3.63;94.05;95162.56;5013708;28;24464;-72
2022/04/05 03:16:49;;;;;;;6.78;5.45;;;;;;;3.71;93.69;95164.75;5013403;28;24425;-72
2022/04/05 03:19:15;;;;;;;6.15;5.30;;;;;;;3.75;93.07;95166.31;5013755;28;24842;-72
2022/04/05 03:21:43;;;;;;;8.05;5.35;;;;;;;3.72;93.65;95176.69;5013411;28;24412;-72
2022/04/05 03:24:09;;;;;;;7.97;5.20;;;;;;;3.62;94.22;95166.03;5013508;28;24560;-72
2022/04/05 03:26:36;;;;;;;10.33;5.60;;;;;;;3.72;94.12;95174.13;5011356;28;24433;-72
2022/04/05 03:29:02;;;;;;;5.17;4.67;;;;;;;3.75;93.80;95174.81;5013602;28;24436;-72
2022/04/05 03:31:29;;;;;;;8.32;5.40;;;;;;;3.69;94.46;95172.53;5012908;28;24448;-72
2022/04/05 03:33:55;;;;;;;8.98;5.18;;;;;;;3.67;94.39;95169.22;5013448;28;24440;-72
2022/04/05 03:36:22;;;;;;;9.07;4.93;;;;;;;3.63;94.84;95163.41;5013427;28;24440;-72
2022/04/05 03:38:50;;;;;;;8.07;5.22;;;;;;;3.79;94.23;95170.38;5013301;28;24420;-72
2022/04/05 03:41:16;;;;;;;8.77;5.28;;;;;;;3.84;93.96;95168.44;5013006;28;24409;-72
2022/04/05 03:43:42;;;;;;;5.50;5.00;;;;;;;3.74;94.51;95170.56;5013143;28;24424;-73
2022/04/05 03:46:09;;;;;;;6.68;5.00;;;;;;;3.73;95.47;95168.09;5012841;28;24424;-73
2022/04/05 03:48:35;;;;;;;7.47;4.97;;;;;;;3.75;95.25;95169.69;5012617;28;24443;-73
2022/04/05 03:51:08;;;;;;;7.20;5.53;;;;;;;3.82;94.36;95165.09;5012508;28;24448;-72
2022/04/05 03:53:34;;;;;;;4.95;4.45;;;;;;;3.76;95.64;95181.59;5012432;28;24535;-72
2022/04/05 03:56:02;;;;;;;6.47;4.67;;;;;;;3.75;96.04;95172.25;5012988;28;24424;-72
2022/04/05 03:58:29;;;;;;;9.18;5.40;;;;;;;3.81;95.35;95173.69;5012954;28;24857;-72
2022/04/05 04:00:55;;;;;;;6.45;4.40;;;;;;;3.82;95.79;95172.78;5012548;28;24412;-72
2022/04/05 04:03:22;;;;;;;6.03;4.53;;;;;;;3.80;96.11;95177.16;5012902;28;24416;-72
2022/04/05 04:05:48;;;;;;;6.90;4.80;;;;;;;3.91;95.41;95176.69;5012796;28;24432;-72
2022/04/05 04:08:14;;;;;;;5.95;4.40;;;;;;;3.83;96.89;95167.59;5012677;28;24420;-72
2022/04/05 04:10:41;;;;;;;9.80;4.80;;;;;;;3.78;98.02;95174.69;5012272;28;24869;-72
2022/04/05 04:13:09;;;;;;;6.43;4.85;;;;;;;3.74;98.88;95169.75;5012363;28;24427;-72
2022/04/05 04:15:36;;;;;;;7.85;4.40;;;;;;;3.79;98.73;95175.50;5012355;28;24428;-72
2022/04/05 04:18:02;;;;;;;9.20;4.75;;;;;;;3.73;100.00;95175.78;5012429;28;24436;-72
2022/04/05 04:20:29;;;;;;;5.38;4.40;;;;;;;3.78;100.00;95184.06;5012324;28;24436;-72
2022/04/05 04:22:55;;;;;;;5.13;4.63;;;;;;;3.67;100.00;95179.47;5012194;28;24432;-72
2022/04/05 04:25:21;;;;;;;7.00;4.53;;;;;;;3.73;100.00;95184.28;5011986;28;24420;-72
2022/04/05 04:27:48;;;;;;;5.72;4.90;;;;;;;3.68;100.00;95185.41;5012329;28;24444;-72
2022/04/05 04:30:16;;;;;;;5.95;4.72;;;;;;;3.74;100.00;95170.56;5012096;28;24475;-72
2022/04/05 04:32:42;;;;;;;6.18;4.63;;;;;;;3.74;100.00;95177.44;5011097;28;24439;-73
2022/04/05 04:35:09;;;;;;;7.40;4.85;;;;;;;3.72;100.00;95181.81;5022880;28;24443;-72
2022/04/05 04:37:36;;;;;;;5.93;4.72;;;;;;;3.70;100.00;95173.34;5031476;28;24902;-73
2022/04/05 04:40:04;;;;;;;4.50;4.10;;;;;;;3.63;100.00;95183.03;5031308;28;25003;-73
2022/04/05 04:42:33;;;;;;;6.78;4.57;;;;;;;3.59;100.00;95178.94;5031670;28;24431;-73
2022/04/05 04:44:59;;;;;;;6.28;4.68;;;;;;;3.57;100.00;95180.78;5031730;28;24426;-73
2022/04/05 04:47:27;;;;;;;5.70;4.50;;;;;;;3.58;100.00;95185.81;5031676;28;24474;-73
2022/04/05 04:49:54;;;;;;;6.38;4.63;;;;;;;3.55;100.00;95180.00;5031591;28;24427;-73
2022/04/05 04:52:20;;;;;;;6.95;4.72;;;;;;;3.58;100.00;95182.41;5031403;28;24452;-73
2022/04/05 04:54:46;;;;;;;7.97;4.70;;;;;;;3.68;100.00;95173.44;5031421;28;24829;-73
2022/04/05 04:57:13;;;;;;;7.35;4.50;;;;;;;3.64;100.00;95170.19;5031390;28;24432;-73
2022/04/05 04:59:39;;;;;;;10.18;5.28;;;;;;;3.60;100.00;95171.22;5031565;28;24419;-73
2022/04/05 05:02:06;;;;;;;5.10;4.18;;;;;;;3.60;100.00;95171.22;5020588;28;24437;-73
2022/04/05 05:04:33;;;;;;;5.13;4.50;;;;;;;3.70;100.00;95163.94;5011286;28;24507;-73
2022/04/05 05:07:00;;;;;;;5.22;4.18;;;;;;;3.66;100.00;95157.28;5010953;28;24864;-73
2022/04/05 05:09:26;;;;;;;4.82;4.35;;;;;;;3.70;100.00;95158.81;5011510;28;24427;-73
2022/04/05 05:11:53;;;;;;;6.15;4.50;;;;;;;3.70;100.00;95161.38;5002953;28;24476;-74
2022/04/05 05:14:20;;;;;;;4.82;4.32;;;;;;;3.67;100.00;95160.69;4991885;28;24448;-73
2022/04/05 05:16:46;;;;;;;8.43;4.60;;;;;;;3.58;100.00;95160.19;4991705;28;24425;-73
2022/04/05 05:19:13;;;;;;;5.05;4.30;;;;;;;3.67;100.00;95150.44;4991754;28;24429;-73
2022/04/05 05:21:41;;;;;;;7.30;4.13;;;;;;;3.78;100.00;95161.03;4991620;28;24471;-73
2022/04/05 05:24:07;;;;;;;6.70;4.43;;;;;;;3.75;100.00;95156.88;4991571;28;24436;-74
2022/04/05 05:26:34;;;;;;;4.53;3.73;;;;;;;3.71;100.00;95155.38;4999450;28;24432;-73
2022/04/05 05:29:00;;;;;;;4.90;4.15;;;;;;;3.74;100.00;95172.31;5011351;28;24432;-73
2022/04/05 05:31:26;;;;;;;5.50;4.32;;;;;;;3.67;100.00;95168.38;5010838;28;24522;-73
2022/04/05 05:33:53;;;;;;;5.07;4.40;;;;;;;3.65;100.00;95176.13;5010766;28;24511;-73
2022/04/05 05:36:20;;;;;;;7.13;4.22;;;;;;;3.58;100.00;95179.88;5010581;28;24444;-73
2022/04/05 05:38:47;;;;;;;8.32;4.90;;;;;;;3.68;100.00;95183.69;5011070;28;24436;-73
2022/04/05 05:41:14;;;;;;;5.00;4.33;;;;;;;3.61;100.00;95184.84;5010832;28;24945;-73
2022/04/05 05:43:41;;;;;;;4.20;3.80;;;;;;;3.51;100.00;95193.84;5011145;28;24451;-73
2022/04/05 05:46:07;;;;;;;7.70;4.95;;;;;;;3.51;100.00;95194.66;5010128;28;24440;-74
2022/04/05 05:48:34;;;;;;;5.53;4.90;;;;;;;3.51;100.00;95212.59;5010666;28;24503;-73
2022/04/05 05:51:00;;;;;;;5.05;4.55;;;;;;;3.48;100.00;95212.72;5010346;28;24475;-73
2022/04/05 05:53:27;;;;;;;4.50;4.10;;;;;;;3.44;100.00;95208.63;5010463;28;24436;-74
2022/04/05 05:55:55;;;;;;;9.00;4.53;;;;;;;3.45;100.00;95202.63;5010662;28;24779;-74
2022/04/05 05:58:22;;;;;;;6.20;4.88;;;;;;;3.48;100.00;95209.31;5010966;28;24511;-74
2022/04/05 06:00:48;;;;;;;5.95;4.65;;;;;;;3.51;100.00;95210.03;5010174;28;24432;-74
2022/04/05 06:03:15;;;;;;;6.25;4.70;;;;;;;3.53;100.00;95209.97;5010397;28;24486;-74
2022/04/05 06:05:43;;;;;;;5.93;5.05;;;;;;;3.50;100.00;95204.97;5009909;28;24440;-74
2022/04/05 06:08:10;;;;;;;6.57;4.90;;;;;;;3.52;100.00;95205.72;5010449;28;24436;-74
2022/04/05 06:10:37;;;;;;;5.95;4.82;;;;;;;3.52;100.00;95209.16;5009967;28;24420;-74
2022/04/05 06:13:05;;;;;;;21.50;5.20;;;;;;;3.53;100.00;95215.91;5010190;28;24417;-74
2022/04/05 06:15:32;;;;;;;6.38;4.80;;;;;;;3.53;100.00;95212.53;5011490;28;24436;-73
2022/04/05 06:17:59;;;;;;;14.75;5.88;;;;;;;3.51;100.00;95217.69;5014352;28;24841;-74
2022/04/05 06:20:27;;;;;;;7.07;5.32;;;;;;;3.52;100.00;95221.09;5013885;28;24440;-74
2022/04/05 06:22:56;;;;;;;7.68;5.55;;;;;;;3.56;100.00;95230.28;5014471;28;24467;-74
2022/04/05 06:25:27;;;;;;;5.97;5.35;;;;;;;3.58;100.00;95231.06;5014186;28;24443;-74
2022/04/05 06:27:53;;;;;;;12.80;4.75;;;;;;;3.69;100.00;95231.44;5014145;28;24862;-73
2022/04/05 06:30:21;;;;;;;8.38;5.53;;;;;;;3.64;100.00;95220.56;5013292;28;24428;-73
2022/04/05 06:32:48;;;;;;;9.07;5.27;;;;;;;3.71;100.00;95215.97;5003934;28;24460;-73
2022/04/05 06:35:15;;;;;;;8.23;4.67;;;;;;;3.77;100.00;95208.84;5010709;28;24524;-73
2022/04/05 06:37:44;;;;;;;6.07;4.60;;;;;;;3.86;100.00;95220.44;5007737;28;24424;-74
2022/04/05 06:40:13;;;;;;;6.27;5.10;;;;;;;3.84;100.00;95219.66;5014068;28;24432;-74
2022/04/05 06:42:43;;;;;;;5.63;5.07;;;;;;;4.06;100.00;95228.03;5013996;28;24958;-74
2022/04/05 06:45:13;;;;;;;7.45;5.15;;;;;;;4.13;100.00;95226.84;5012162;28;24440;-74
2022/04/05 06:47:41;;;;;;;4.35;3.95;;;;;;;4.23;100.00;95240.09;5005192;28;24435;-74
2022/04/05 06:50:09;;;;;;;5.77;4.30;;;;;;;4.36;100.00;95238.59;5004237;28;24439;-74
2022/04/05 06:52:38;;;;;;;6.60;4.20;;;;;;;4.42;100.00;95234.09;5010727;28;24456;-74
2022/04/05 06:55:05;;;;;;;4.53;3.70;;;;;;;4.68;100.00;95231.13;5013698;28;24886;-74
2022/04/05 06:57:31;;;;;;;4.43;3.75;;;;;;;4.71;100.00;95232.69;5013710;28;24490;-74
2022/04/05 06:59:58;;;;;;;4.22;3.83;;;;;;;4.73;100.00;95224.03;5005499;28;24555;-73
2022/04/05 07:02:24;;;;;;;4.20;3.60;;;;;;;4.78;100.00;95224.66;5002469;28;24786;-73
2022/04/05 07:04:52;;;;;;;4.00;3.30;;;;;;;4.83;100.00;95238.06;5000943;28;24682;-73
2022/04/05 07:07:19;;;;;;;4.35;3.67;;;;;;;4.81;100.00;95236.47;5001070;28;24971;-73
2022/04/05 07:09:45;;;;;;;4.90;3.40;;;;;;;4.93;100.00;95232.47;5003012;28;24433;-73
2022/04/05 07:12:11;;;;;;;4.43;3.45;;;;;;;4.95;100.00;95228.94;5001853;28;24886;-73
2022/04/05 07:14:39;;;;;;;5.82;3.53;;;;;;;5.15;100.00;95229.66;5003661;28;24495;-73
2022/04/05 07:17:06;;;;;;;4.22;3.83;;;;;;;5.14;100.00;95228.84;5002436;28;24437;-73
2022/04/05 07:19:33;;;;;;;3.92;3.25;;;;;;;5.31;100.00;95221.13;4997752;28;24436;-73
2022/04/05 07:22:02;;;;;;;3.50;3.10;;;;;;;5.25;100.00;95220.59;4993876;28;24433;-73
2022/04/05 07:24:28;;;;;;;4.20;3.63;;;;;;;5.30;100.00;95222.06;4993772;28;24516;-73
2022/04/05 07:26:55;;;;;;;5.80;3.73;;;;;;;5.26;100.00;95223.09;4997707;28;24850;-73
2022/04/05 07:29:22;;;;;;;4.68;3.85;;;;;;;5.20;100.00;95223.41;5013551;28;24475;-73
2022/04/05 07:31:48;;;;;;;3.70;3.38;;;;;;;5.22;100.00;95225.91;5013251;28;24448;-73
2022/04/05 07:34:14;;;;;;;8.32;4.32;;;;;;;5.32;100.00;95215.09;5013113;28;24424;-73
2022/04/05 07:36:41;;;;;;;7.55;5.70;;;;;;;5.28;100.00;95221.28;5012716;28;24427;-73
2022/04/05 07:39:09;;;;;;;7.90;5.47;;;;;;;5.37;100.00;95222.53;5012888;28;24965;-73
2022/04/05 07:41:35;;;;;;;6.43;4.78;;;;;;;5.36;100.00;95223.47;5012583;28;24416;-73
2022/04/05 07:44:02;;;;;;;6.93;5.32;;;;;;;5.28;100.00;95218.72;5012873;28;24432;-73
2022/04/05 07:46:29;;;;;;;13.73;7.40;;;;;;;5.40;100.00;95216.44;5012685;28;25012;-74
2022/04/05 07:48:56;;;;;;;5.13;4.32;;;;;;;5.36;100.00;95218.31;5012899;28;24417;-75
2022/04/05 07:51:22;;;;;;;16.80;10.90;;;;;;;5.36;100.00;95214.94;5012614;28;24416;-73
2022/04/05 07:53:49;;;;;;;6.47;5.15;;;;;;;5.46;100.00;95218.69;5012754;28;24428;-73
2022/04/05 07:56:16;;;;;;;12.18;9.50;;;;;;;5.46;100.00;95214.38;5012867;28;24436;-74
2022/04/05 07:58:43;;;;;;;11.40;9.23;;;;;;;5.48;100.00;95216.84;5012714;28;24818;-74
2022/04/05 08:01:10;;;;;;;6.70;4.63;;;;;;;5.41;100.00;95225.78;5012383;28;24960;-74
2022/04/05 08:03:37;;;;;;;18.33;9.45;;;;;;;5.36;100.00;95220.88;5012756;28;24404;-75
2022/04/05 08:06:04;;;;;;;22.40;10.65;;;;;;;5.39;100.00;95218.16;5012365;28;24486;-75
2022/04/05 08:08:31;;;;;;;6.00;4.60;;;;;;;5.42;100.00;95222.34;5012412;28;24428;-73
2022/04/05 08:10:58;;;;;;;7.72;5.47;;;;;;;5.41;100.00;95224.03;5012105;28;24432;-73
2022/04/05 08:13:26;;;;;;;4.75;4.25;;;;;;;5.50;100.00;95225.31;5011666;28;24444;-75
2022/04/05 08:15:53;;;;;;;4.22;3.55;;;;;;;5.58;100.00;95223.19;5012082;28;24798;-75
2022/04/05 08:18:20;;;;;;;5.60;3.63;;;;;;;5.64;100.00;95232.34;5012780;28;24431;-74
2022/04/05 08:20:46;;;;;;;8.45;4.00;;;;;;;5.66;100.00;95231.31;5012090;28;24964;-74
2022/04/05 08:23:13;;;;;;;5.80;3.95;;;;;;;5.61;100.00;95229.91;5011943;28;24424;-74
2022/04/05 08:25:39;;;;;;;6.40;4.03;;;;;;;5.80;100.00;95225.47;5012029;28;24436;-74
2022/04/05 08:28:07;;;;;;;6.20;3.50;;;;;;;5.78;100.00;95242.69;5012312;28;24416;-75
2022/04/05 08:30:35;;;;;;;6.25;3.45;;;;;;;5.71;100.00;95243.91;5011945;28;24820;-73
2022/04/05 08:33:01;;;;;;;6.40;3.15;;;;;;;5.72;100.00;95246.44;5012439;28;24480;-75
2022/04/05 08:35:28;;;;;;;5.05;3.20;;;;;;;5.82;100.00;95249.31;5011945;28;24435;-73
2022/04/05 08:37:56;;;;;;;3.22;2.92;;;;;;;5.82;100.00;95247.63;5011611;28;24423;-74
2022/04/05 08:40:24;;;;;;;4.00;3.20;;;;;;;5.88;100.00;95250.75;5011640;28;24416;-74
2022/04/05 08:42:53;;;;;;;4.23;3.40;;;;;;;6.00;100.00;95238.09;5012154;28;24488;-75
2022/04/05 08:45:21;;;;;;;3.88;3.30;;;;;;;6.11;100.00;95237.53;5012093;28;24416;-75
2022/04/05 08:47:51;;;;;;;5.97;3.88;;;;;;;6.19;100.00;95250.84;5011781;28;24423;-74
2022/04/05 08:50:19;;;;;;;4.88;3.28;;;;;;;6.39;100.00;95254.06;5010769;28;24487;-76
2022/04/05 08:52:47;;;;;;;4.47;3.25;;;;;;;6.48;100.00;95253.53;5011907;28;24453;-71
2022/04/05 08:55:15;;;;;;;5.57;3.35;;;;;;;6.52;100.00;95252.47;5011873;28;24482;-74
2022/04/05 08:57:42;;;;;;;7.40;3.37;;;;;;;6.52;100.00;95248.13;5011717;28;24420;-75
2022/04/05 09:00:11;;;;;;;4.95;3.38;;;;;;;6.51;100.00;95251.63;5011352;28;24428;-73
2022/04/05 09:02:37;;;;;;;4.90;3.10;;;;;;;6.47;100.00;95255.28;5003154;28;24830;-73
2022/04/05 09:05:06;;;;;;;3.70;3.17;;;;;;;6.41;100.00;95260.75;5011582;28;24420;-72
2022/04/05 09:07:35;;;;;;;4.05;3.03;;;;;;;6.42;100.00;95259.88;5011640;28;24451;-72
2022/04/05 09:10:13;;;;;;;5.32;3.60;;;;;;;6.24;100.00;95258.28;5011232;28;24428;-72
2022/04/05 09:12:44;;;;;;;3.50;2.83;;;;;;;6.29;100.00;95261.44;5011056;28;24894;-73
2022/04/05 09:15:24;;;;;;;3.38;3.08;;;;;;;6.16;100.00;95261.28;5010905;28;24990;-74
2022/04/05 09:17:51;;;;;;;5.63;3.38;;;;;;;6.15;100.00;95264.75;5011647;28;24504;-74
2022/04/05 09:20:21;;;;;;;4.70;3.20;;;;;;;6.17;100.00;95256.97;5010986;28;25000;-73
2022/04/05 09:22:48;;;;;;;3.43;2.80;;;;;;;6.12;100.00;95257.22;5011226;28;24663;-74
2022/04/05 09:25:16;;;;;;;4.47;3.05;;;;;;;6.12;100.00;95254.66;5011069;28;24471;-75
2022/04/05 09:27:44;;;;;;;3.97;3.03;;;;;;;6.17;100.00;95262.09;5011014;28;25099;-74
2022/04/05 09:30:13;;;;;;;6.93;3.40;;;;;;;6.15;100.00;95256.19;5010927;28;24799;-74
2022/04/05 09:32:42;;;;;;;3.55;2.97;;;;;;;6.17;100.00;95259.53;5010913;28;24455;-73
2022/04/05 09:35:10;;;;;;;5.20;2.63;;;;;;;6.28;100.00;95255.47;5010858;28;24434;-72
2022/04/05 09:37:39;;;;;;;3.78;2.70;;;;;;;6.30;100.00;95263.09;5010945;28;24421;-72
2022/04/05 09:40:17;;;;;;;3.97;3.03;;;;;;;6.35;100.00;95255.97;5010390;28;24464;-72
2022/04/05 09:42:59;;;;;;;2.88;2.30;;;;;;;6.39;100.00;95259.22;4991438;28;24433;-72
2022/04/05 09:45:47;;;;;;;4.28;2.92;;;;;;;6.37;100.00;95258.44;4991275;28;24425;-72
2022/04/05 09:48:15;;;;;;;3.17;2.40;;;;;;;6.42;100.00;95259.88;4991206;28;24451;-72
2022/04/05 09:50:59;;;;;;;2.90;2.30;;;;;;;6.45;100.00;95257.13;4989913;28;24436;-72
2022/04/05 09:53:27;;;;;;;2.97;2.55;;;;;;;6.45;100.00;95256.28;4991039;28;25063;-72
2022/04/05 09:56:05;;;;;;;3.23;2.63;;;;;;;6.50;100.00;95256.88;4991096;28;24860;-72
2022/04/05 09:58:31;;;;;;;3.55;2.17;;;;;;;6.58;100.00;95271.88;4991013;28;24946;-72
2022/04/05 10:01:05;;;;;;;4.38;2.40;;;;;;;6.63;100.00;95270.72;5035491;23;25089;-76
2022/04/05 10:03:31;;;;;;;3.05;2.33;;;;;;;6.70;100.00;95271.22;5030605;28;24520;-76
2022/04/05 10:05:58;;;;;;;2.67;2.20;;;;;;;6.70;100.00;95259.16;5030397;28;24436;-75
2022/04/05 10:08:24;;;;;;;4.30;2.30;;;;;;;6.76;100.00;95269.13;5030267;28;24482;-75
2022/04/05 10:10:52;;;;;;;8.23;2.08;;;;;;;6.78;100.00;95263.88;5018755;28;24427;-76
2022/04/05 10:13:19;;;;;;;2.40;1.95;;;;;;;6.77;100.00;95269.94;5010139;28;24447;-75
2022/04/05 10:15:48;;;;;;;3.78;1.95;;;;;;;6.79;100.00;95260.41;5009879;28;24793;-76
2022/04/05 10:18:16;;;;;;;2.60;1.90;;;;;;;6.82;100.00;95274.84;5010397;28;25012;-76
2022/04/05 10:20:43;;;;;;;2.53;2.13;;;;;;;6.87;100.00;95275.44;5010241;28;24429;-76
2022/04/05 10:23:11;;;;;;;2.45;2.00;;;;;;;6.87;100.00;95281.41;5010459;28;24467;-76
2022/04/05 10:25:39;;;;;;;1.85;1.60;;;;;;;6.88;100.00;95277.06;5010768;28;24451;-76
2022/04/05 10:28:07;;;;;;;2.20;1.90;;;;;;;6.93;100.00;95278.47;5010592;28;24486;-75
2022/04/05 10:30:41;;;;;;;3.38;1.80;;;;;;;6.93;100.00;95275.88;5010442;28;24772;-76
2022/04/05 10:33:13;;;;;;;2.22;1.92;;;;;;;7.07;100.00;95274.28;5010497;28;24444;-76
2022/04/05 10:35:50;;;;;;;2.50;1.95;;;;;;;6.98;100.00;95278.22;5010212;28;24416;-73
2022/04/05 10:38:18;;;;;;;2.33;2.13;;;;;;;7.05;100.00;95278.72;5011016;28;24427;-74
2022/04/05 10:41:15;;;;;;;2.97;2.20;;;;;;;6.97;100.00;95269.69;5010195;28;24547;-74
2022/04/05 10:43:44;;;;;;;3.05;2.40;;;;;;;6.91;100.00;95277.75;5010869;28;24478;-74
2022/04/05 10:46:11;;;;;;;3.20;2.22;;;;;;;6.97;100.00;95279.13;5010305;28;24412;-74
2022/04/05 10:48:55;;;;;;;4.00;2.38;;;;;;;6.98;100.00;95268.75;5010338;28;24794;-74
2022/04/05 10:51:31;;;;;;;3.22;2.50;;;;;;;6.87;100.00;95265.97;5009966;28;24424;-74
2022/04/05 10:54:19;;;;;;;3.95;2.28;;;;;;;6.91;100.00;95272.59;5010079;28;24543;-74
2022/04/05 10:57:17;;;;;;;3.50;2.58;;;;;;;6.89;100.00;95271.84;5010147;28;24425;-74
2022/04/05 10:59:48;;;;;;;4.70;3.20;;;;;;;6.91;100.00;95272.59;5010073;28;24432;-73
2022/04/05 11:02:33;;;;;;;5.75;2.95;;;;;;;6.87;100.00;95273.69;5012632;28;24455;-75
2022/04/05 11:05:02;;;;;;;3.17;2.42;;;;;;;6.93;100.00;95275.88;5013424;28;24551;-75
2022/04/05 11:07:29;;;;;;;2.58;2.38;;;;;;;6.98;100.00;95271.31;5013686;28;24511;-75
2022/04/05 11:10:00;;;;;;;3.03;2.38;;;;;;;6.87;100.00;95273.69;5013658;28;24438;-74
2022/04/05 11:12:28;;;;;;;4.60;2.80;;;;;;;6.92;100.00;95276.00;5014029;28;24478;-74
2022/04/05 11:14:57;;;;;;;3.93;3.00;;;;;;;6.82;100.00;95273.09;5013716;28;24428;-74
2022/04/05 11:17:26;;;;;;;4.30;2.70;;;;;;;6.84;100.00;95273.84;5014089;28;24515;-75
2022/04/05 11:19:55;;;;;;;3.85;2.70;;;;;;;6.82;100.00;95269.69;5013637;28;24829;-73
2022/04/05 11:22:30;;;;;;;2.40;2.20;;;;;;;6.90;100.00;95270.94;5013827;28;24957;-74
2022/04/05 11:25:00;;;;;;;3.40;2.38;;;;;;;6.86;100.00;95273.75;5013635;28;24420;-75
2022/04/05 11:27:28;;;;;;;4.00;2.60;;;;;;;6.76;100.00;95268.31;5013516;28;25008;-75
2022/04/05 11:30:37;;;;;;;2.63;2.25;;;;;;;6.78;100.00;95269.84;5013595;28;24520;-73
2022/04/05 11:33:44;;;;;;;3.40;2.47;;;;;;;6.86;100.00;95268.59;5014086;28;24459;-75
2022/04/05 11:36:13;;;;;;;2.38;2.05;;;;;;;6.89;100.00;95273.59;5011847;28;24539;-73
2022/04/05 11:38:42;;;;;;;3.33;2.30;;;;;;;6.85;100.00;95270.34;5014035;28;20771;-75
2022/04/05 11:41:11;;;;;;;6.50;2.47;;;;;;;6.99;100.00;95267.00;5013035;28;24424;-76